Time;durP1;ratioP1;P1;durP2;ratioP2;P2;SDS_P1;SDS_P2;PMS_P1;PMS_P2;Temp;Humidity;BMP_temperature;BMP_pressure;BME280_temperature;BME280_humidity;BME280_pressure;Samples;Min_cycle;Max_cycle;Signal;HPM_P1;HPM_P2
2023/04/29 00:01:32;;;;;;;13.27;8.35;;;;;;;;;;5046093;28;20217;-74
2023/04/29 00:03:59;;;;;;;5.97;4.63;;;;;;;;;;5065088;28;20232;-74
2023/04/29 00:06:27;;;;;;;9.27;6.63;;;;;;;;;;5043156;28;20205;-74
2023/04/29 00:08:54;;;;;;;7.80;7.10;;;;;;;;;;5059300;28;20240;-74
2023/04/29 00:11:21;;;;;;;3.20;3.00;;;;;;;;;;5066206;28;20235;-74
2023/04/29 00:13:49;;;;;;;3.77;3.47;;;;;;;;;;5070894;28;20209;-74
2023/04/29 00:16:16;;;;;;;3.90;3.57;;;;;;;;;;5068038;28;20248;-73
2023/04/29 00:18:43;;;;;;;4.40;3.00;;;;;;;;;;5072990;28;20225;-74
2023/04/29 00:21:11;;;;;;;3.63;3.43;;;;;;;;;;5071952;28;20226;-75
2023/04/29 00:23:38;;;;;;;5.30;3.83;;;;;;;;;;5071427;28;20193;-74
2023/04/29 00:26:06;;;;;;;5.03;3.20;;;;;;;;;;5062109;28;20200;-73
2023/04/29 00:28:33;;;;;;;3.97;3.13;;;;;;;;;;5066699;28;20221;-73
2023/04/29 00:31:01;;;;;;;3.80;3.50;;;;;;;;;;5077880;28;20279;-73
2023/04/29 00:33:28;;;;;;;4.03;3.47;;;;;;;;;;5059440;28;20255;-74
2023/04/29 00:35:56;;;;;;;4.63;4.23;;;;;;;;;;5070212;28;20201;-74
2023/04/29 00:38:23;;;;;;;7.53;5.47;;;;;;;;;;5069896;28;20206;-74
2023/04/29 00:40:50;;;;;;;3.90;3.60;;;;;;;;;;5069121;28;20687;-74
2023/04/29 00:43:18;;;;;;;8.13;5.63;;;;;;;;;;5049100;28;20205;-74
2023/04/29 00:45:45;;;;;;;26.40;14.37;;;;;;;;;;5074727;28;20288;-74
2023/04/29 00:48:16;;;;;;;4.57;4.00;;;;;;;;;;5062448;28;20201;-73
2023/04/29 00:50:43;;;;;;;3.87;3.47;;;;;;;;;;5058415;28;20316;-73
2023/04/29 00:53:14;;;;;;;3.60;3.30;;;;;;;;;;5057265;28;20206;-74
2023/04/29 00:55:42;;;;;;;4.50;3.97;;;;;;;;;;5069579;28;20951;-74
2023/04/29 00:58:10;;;;;;;3.53;3.23;;;;;;;;;;5072972;28;20713;-74
2023/04/29 01:00:38;;;;;;;3.23;3.03;;;;;;;;;;5049644;28;20244;-74
2023/04/29 01:03:05;;;;;;;3.67;3.37;;;;;;;;;;5063961;28;20210;-75
2023/04/29 01:05:33;;;;;;;3.97;3.67;;;;;;;;;;5050948;28;20232;-75
2023/04/29 01:08:19;;;;;;;3.60;3.30;;;;;;;;;;5070176;28;20237;-74
2023/04/29 01:10:52;;;;;;;4.23;3.83;;;;;;;;;;5039259;28;20378;-74
2023/04/29 01:13:30;;;;;;;4.00;3.60;;;;;;;;;;5075280;28;20204;-74
2023/04/29 01:16:02;;;;;;;3.40;3.10;;;;;;;;;;5060303;28;20279;-74
2023/04/29 01:18:42;;;;;;;4.10;3.80;;;;;;;;;;5058478;28;20270;-74
2023/04/29 01:21:09;;;;;;;4.30;3.90;;;;;;;;;;5076231;28;20306;-74
2023/04/29 01:23:36;;;;;;;5.37;4.20;;;;;;;;;;5066499;28;20287;-74
2023/04/29 01:26:04;;;;;;;4.97;3.80;;;;;;;;;;5066376;28;20319;-74
2023/04/29 01:28:51;;;;;;;4.27;3.87;;;;;;;;;;5041346;28;20225;-74
2023/04/29 01:31:18;;;;;;;4.27;3.87;;;;;;;;;;5054359;28;20230;-75
2023/04/29 01:33:57;;;;;;;5.87;4.07;;;;;;;;;;5070819;28;20209;-75
2023/04/29 01:36:38;;;;;;;5.33;4.33;;;;;;;;;;5069277;28;20301;-73
2023/04/29 01:39:19;;;;;;;4.73;4.33;;;;;;;;;;5061366;28;20313;-75
2023/04/29 01:42:05;;;;;;;5.53;5.03;;;;;;;;;;5057477;28;20255;-74
2023/04/29 01:44:33;;;;;;;8.93;6.57;;;;;;;;;;5036764;28;20201;-72
2023/04/29 01:47:00;;;;;;;7.87;5.50;;;;;;;;;;5065701;28;20756;-73
2023/04/29 01:49:28;;;;;;;5.00;4.60;;;;;;;;;;5058316;28;20225;-74
2023/04/29 01:51:55;;;;;;;6.40;4.80;;;;;;;;;;5043457;28;20251;-74
2023/04/29 01:54:23;;;;;;;4.50;4.20;;;;;;;;;;5068858;28;20818;-73
2023/04/29 01:56:51;;;;;;;6.37;4.60;;;;;;;;;;5060206;28;20209;-73
2023/04/29 01:59:18;;;;;;;4.70;4.17;;;;;;;;;;5043867;28;20260;-74
2023/04/29 02:01:46;;;;;;;4.43;3.97;;;;;;;;;;5064373;28;20320;-74
2023/04/29 02:04:13;;;;;;;4.67;4.30;;;;;;;;;;5044815;28;20772;-74
2023/04/29 02:06:40;;;;;;;4.07;3.77;;;;;;;;;;5062123;28;20206;-74
2023/04/29 02:09:07;;;;;;;4.23;3.83;;;;;;;;;;5061042;28;20208;-74
2023/04/29 02:11:35;;;;;;;4.80;4.40;;;;;;;;;;5063951;28;20203;-74
2023/04/29 02:14:02;;;;;;;3.87;3.57;;;;;;;;;;5060554;28;20953;-74
2023/04/29 02:16:29;;;;;;;4.47;4.07;;;;;;;;;;5043201;28;20236;-75
2023/04/29 02:18:57;;;;;;;4.03;3.67;;;;;;;;;;5060156;28;20687;-74
2023/04/29 02:21:25;;;;;;;4.30;4.00;;;;;;;;;;5063223;28;20233;-74
2023/04/29 02:23:53;;;;;;;6.73;4.33;;;;;;;;;;5062054;28;20288;-73
2023/04/29 02:26:21;;;;;;;4.50;4.10;;;;;;;;;;5060818;28;20206;-74
2023/04/29 02:28:49;;;;;;;4.83;4.17;;;;;;;;;;5057854;28;20687;-73
2023/04/29 02:31:16;;;;;;;4.73;4.33;;;;;;;;;;5057310;28;20221;-73
2023/04/29 02:33:43;;;;;;;4.23;3.93;;;;;;;;;;5061570;28;20236;-74
2023/04/29 02:36:10;;;;;;;4.50;4.10;;;;;;;;;;5059815;28;20201;-74
2023/04/29 02:38:38;;;;;;;4.67;4.27;;;;;;;;;;5062243;28;20296;-74
2023/04/29 02:41:05;;;;;;;4.80;4.20;;;;;;;;;;5062303;28;20328;-74
2023/04/29 02:43:32;;;;;;;4.80;4.33;;;;;;;;;;5059591;28;20912;-74
2023/04/29 02:45:59;;;;;;;4.70;4.33;;;;;;;;;;5058765;28;20630;-73
2023/04/29 02:48:27;;;;;;;4.33;4.03;;;;;;;;;;5055941;28;20288;-74
2023/04/29 02:50:54;;;;;;;4.30;4.00;;;;;;;;;;5051142;28;20683;-73
2023/04/29 02:53:22;;;;;;;4.17;3.87;;;;;;;;;;5057028;28;20600;-73
2023/04/29 02:55:49;;;;;;;4.23;3.83;;;;;;;;;;5058989;28;20210;-74
2023/04/29 02:58:16;;;;;;;4.60;4.10;;;;;;;;;;5059686;28;20255;-74
2023/04/29 03:00:44;;;;;;;4.93;4.47;;;;;;;;;;5058116;28;20267;-73
2023/04/29 03:03:11;;;;;;;3.87;3.60;;;;;;;;;;5038755;28;21316;-74
2023/04/29 03:05:38;;;;;;;4.27;3.87;;;;;;;;;;5042291;28;20242;-75
2023/04/29 03:08:06;;;;;;;3.87;3.57;;;;;;;;;;5040955;28;20293;-75
2023/04/29 03:10:33;;;;;;;4.10;3.80;;;;;;;;;;5065146;28;20463;-74
2023/04/29 03:13:01;;;;;;;4.73;3.70;;;;;;;;;;5065069;28;20212;-74
2023/04/29 03:15:28;;;;;;;4.33;3.97;;;;;;;;;;5064790;28;20198;-74
2023/04/29 03:17:56;;;;;;;4.20;3.90;;;;;;;;;;5059921;28;20213;-74
2023/04/29 03:20:23;;;;;;;4.40;4.00;;;;;;;;;;5064698;28;20253;-74
2023/04/29 03:22:50;;;;;;;4.10;3.80;;;;;;;;;;5070975;28;20200;-74
2023/04/29 03:25:18;;;;;;;3.97;3.67;;;;;;;;;;5065213;28;20281;-73
2023/04/29 03:27:46;;;;;;;4.03;3.73;;;;;;;;;;5067878;28;20351;-74
2023/04/29 03:30:13;;;;;;;3.60;3.30;;;;;;;;;;5047010;28;20247;-74
2023/04/29 03:32:40;;;;;;;4.10;3.80;;;;;;;;;;5062644;28;20251;-74
2023/04/29 03:35:08;;;;;;;4.00;3.50;;;;;;;;;;5065640;28;20215;-74
2023/04/29 03:37:35;;;;;;;4.20;3.80;;;;;;;;;;5044175;28;20206;-73
2023/04/29 03:40:03;;;;;;;4.33;3.93;;;;;;;;;;5062690;28;20225;-74
2023/04/29 03:42:30;;;;;;;4.67;4.13;;;;;;;;;;5050383;28;20223;-73
2023/04/29 03:44:57;;;;;;;3.90;3.60;;;;;;;;;;5062661;28;20309;-74
2023/04/29 03:47:25;;;;;;;5.57;4.67;;;;;;;;;;5065072;28;20263;-74
2023/04/29 03:49:52;;;;;;;4.27;3.97;;;;;;;;;;5067060;28;20226;-75
2023/04/29 03:52:20;;;;;;;3.97;3.67;;;;;;;;;;5065909;28;20655;-74
2023/04/29 03:54:47;;;;;;;3.90;3.60;;;;;;;;;;5063970;28;20609;-73
2023/04/29 03:57:15;;;;;;;4.43;4.13;;;;;;;;;;5065491;28;20301;-73
2023/04/29 03:59:42;;;;;;;4.60;4.20;;;;;;;;;;5067664;28;20636;-73
2023/04/29 04:02:10;;;;;;;4.10;3.70;;;;;;;;;;5061389;28;20613;-75
2023/04/29 04:04:37;;;;;;;3.80;3.50;;;;;;;;;;5068531;28;20202;-73
2023/04/29 04:07:05;;;;;;;5.17;4.77;;;;;;;;;;5064897;28;20935;-74
2023/04/29 04:09:32;;;;;;;5.00;4.20;;;;;;;;;;5056163;28;20226;-73
2023/04/29 04:12:00;;;;;;;5.27;4.70;;;;;;;;;;5056125;28;20209;-74
2023/04/29 04:14:27;;;;;;;4.13;3.83;;;;;;;;;;5060206;28;20197;-74
2023/04/29 04:16:55;;;;;;;4.93;4.43;;;;;;;;;;5061650;28;20631;-74
2023/04/29 04:19:22;;;;;;;5.20;4.73;;;;;;;;;;5063864;28;20241;-72
2023/04/29 04:21:49;;;;;;;4.70;4.40;;;;;;;;;;5054018;28;20818;-74
2023/04/29 04:24:16;;;;;;;4.90;4.50;;;;;;;;;;5056987;28;20291;-74
2023/04/29 04:26:44;;;;;;;5.33;4.83;;;;;;;;;;5054585;28;20206;-74
2023/04/29 04:29:11;;;;;;;6.07;5.47;;;;;;;;;;5057027;28;20233;-74
2023/04/29 04:31:38;;;;;;;5.63;5.13;;;;;;;;;;5059398;28;20288;-74
2023/04/29 04:34:06;;;;;;;5.50;5.10;;;;;;;;;;5059116;28;20205;-74
2023/04/29 04:36:33;;;;;;;5.40;5.00;;;;;;;;;;5058207;28;20215;-74
2023/04/29 04:39:00;;;;;;;5.30;4.80;;;;;;;;;;5055783;28;20339;-74
2023/04/29 04:41:30;;;;;;;4.80;4.40;;;;;;;;;;5059835;28;20257;-74
2023/04/29 04:43:57;;;;;;;4.90;4.50;;;;;;;;;;5062707;28;20202;-74
2023/04/29 04:46:25;;;;;;;4.57;4.17;;;;;;;;;;5060114;28;20205;-74
2023/04/29 04:48:52;;;;;;;4.50;4.10;;;;;;;;;;5060511;28;20297;-74
2023/04/29 04:51:20;;;;;;;4.10;3.80;;;;;;;;;;5053119;28;20314;-74
2023/04/29 04:53:47;;;;;;;3.80;3.53;;;;;;;;;;5058444;28;20233;-74
2023/04/29 04:56:14;;;;;;;4.43;4.03;;;;;;;;;;5057190;28;20233;-74
2023/04/29 04:58:41;;;;;;;4.20;3.80;;;;;;;;;;5060006;28;20218;-74
2023/04/29 05:01:09;;;;;;;4.13;3.83;;;;;;;;;;5055148;28;20249;-74
2023/04/29 05:03:36;;;;;;;4.00;3.70;;;;;;;;;;5058109;28;20201;-74
2023/04/29 05:06:04;;;;;;;4.33;4.03;;;;;;;;;;5059293;28;20781;-75
2023/04/29 05:08:31;;;;;;;4.10;3.80;;;;;;;;;;5059820;28;20856;-74
2023/04/29 05:10:58;;;;;;;4.13;3.80;;;;;;;;;;5057223;28;20260;-75
2023/04/29 05:13:25;;;;;;;4.47;4.17;;;;;;;;;;5048153;28;20205;-74
2023/04/29 05:15:53;;;;;;;4.90;4.50;;;;;;;;;;5040084;28;20220;-74
2023/04/29 05:18:20;;;;;;;4.70;4.30;;;;;;;;;;5059439;28;20217;-74
2023/04/29 05:20:48;;;;;;;5.13;4.73;;;;;;;;;;5062849;28;20272;-74
2023/04/29 05:23:15;;;;;;;5.10;4.50;;;;;;;;;;5047483;28;20233;-74
2023/04/29 05:25:42;;;;;;;4.70;4.23;;;;;;;;;;5047945;28;20204;-75
2023/04/29 05:28:10;;;;;;;5.10;4.57;;;;;;;;;;5046410;28;20240;-74
2023/04/29 05:30:37;;;;;;;5.50;5.00;;;;;;;;;;5059731;28;20320;-74
2023/04/29 05:33:04;;;;;;;4.70;4.40;;;;;;;;;;5057175;28;20816;-75
2023/04/29 05:35:32;;;;;;;5.53;5.00;;;;;;;;;;5056072;28;20248;-74
2023/04/29 05:37:59;;;;;;;5.30;4.90;;;;;;;;;;5058741;28;20284;-74
2023/04/29 05:40:26;;;;;;;4.70;4.30;;;;;;;;;;5042000;28;20226;-74
2023/04/29 05:42:54;;;;;;;5.30;4.43;;;;;;;;;;5064107;28;20281;-75
2023/04/29 05:45:21;;;;;;;4.73;4.43;;;;;;;;;;5064602;28;20698;-75
2023/04/29 05:47:49;;;;;;;5.27;4.77;;;;;;;;;;5065511;28;20337;-74
2023/04/29 05:50:16;;;;;;;5.63;4.37;;;;;;;;;;5062180;28;20871;-75
2023/04/29 05:52:43;;;;;;;4.23;3.83;;;;;;;;;;5061517;28;20297;-75
2023/04/29 05:55:11;;;;;;;4.50;4.10;;;;;;;;;;5053991;28;20590;-74
2023/04/29 05:57:38;;;;;;;4.43;4.03;;;;;;;;;;5059264;28;20229;-74
2023/04/29 06:00:06;;;;;;;4.63;4.27;;;;;;;;;;5061168;28;20304;-74
2023/04/29 06:02:33;;;;;;;5.43;4.63;;;;;;;;;;5059964;28;20264;-74
2023/04/29 06:05:06;;;;;;;4.93;4.43;;;;;;;;;;5064571;28;20206;-76
2023/04/29 06:07:36;;;;;;;5.30;4.80;;;;;;;;;;5061546;28;20198;-76
2023/04/29 06:10:05;;;;;;;5.50;4.90;;;;;;;;;;5063483;28;20233;-74
2023/04/29 06:12:32;;;;;;;5.53;4.23;;;;;;;;;;5051580;28;20237;-75
2023/04/29 06:15:00;;;;;;;5.27;4.87;;;;;;;;;;5061925;28;20228;-74
2023/04/29 06:17:28;;;;;;;5.80;5.30;;;;;;;;;;5042972;28;20201;-75
2023/04/29 06:19:55;;;;;;;5.60;5.10;;;;;;;;;;5058923;28;20224;-76
2023/04/29 06:22:22;;;;;;;6.10;5.50;;;;;;;;;;5039881;28;20268;-73
2023/04/29 06:24:51;;;;;;;8.23;4.83;;;;;;;;;;5062420;28;20201;-74
2023/04/29 06:27:18;;;;;;;5.83;5.23;;;;;;;;;;5059391;28;21889;-73
2023/04/29 06:29:46;;;;;;;7.67;5.03;;;;;;;;;;5056110;28;20525;-76
2023/04/29 06:32:13;;;;;;;6.67;5.97;;;;;;;;;;5055860;28;20298;-75
2023/04/29 06:34:40;;;;;;;11.10;7.73;;;;;;;;;;5061664;28;20263;-74
2023/04/29 06:37:07;;;;;;;7.70;6.90;;;;;;;;;;5062107;28;20212;-75
2023/04/29 06:39:35;;;;;;;5.00;4.60;;;;;;;;;;5064714;28;20308;-76
2023/04/29 06:42:02;;;;;;;5.20;4.70;;;;;;;;;;5062949;28;20312;-75
2023/04/29 06:44:30;;;;;;;7.27;5.50;;;;;;;;;;5062955;28;20555;-77
2023/04/29 06:46:58;;;;;;;12.40;8.40;;;;;;;;;;5049573;28;20201;-73
2023/04/29 06:49:26;;;;;;;7.23;5.23;;;;;;;;;;5036294;28;20309;-75
2023/04/29 06:51:53;;;;;;;3.47;3.17;;;;;;;;;;5060213;28;20209;-75
2023/04/29 06:54:21;;;;;;;5.33;4.00;;;;;;;;;;5065012;28;20252;-75
2023/04/29 06:56:48;;;;;;;6.93;3.90;;;;;;;;;;5059841;28;20647;-75
2023/04/29 06:59:16;;;;;;;3.87;3.13;;;;;;;;;;5061958;28;20730;-76
2023/04/29 07:01:43;;;;;;;3.23;2.93;;;;;;;;;;5065370;28;20709;-74
2023/04/29 07:04:12;;;;;;;1.97;1.87;;;;;;;;;;5063196;28;20276;-74
2023/04/29 07:06:39;;;;;;;2.53;1.87;;;;;;;;;;5044999;28;20254;-75
2023/04/29 07:09:07;;;;;;;2.50;1.97;;;;;;;;;;5045022;28;20292;-75
2023/04/29 07:11:34;;;;;;;1.93;1.83;;;;;;;;;;5047487;28;20205;-74
2023/04/29 07:14:01;;;;;;;1.80;1.70;;;;;;;;;;5063442;28;20221;-75
2023/04/29 07:16:29;;;;;;;2.93;1.80;;;;;;;;;;5059955;28;20208;-75
2023/04/29 07:18:56;;;;;;;2.17;2.00;;;;;;;;;;5065629;28;20243;-74
2023/04/29 07:21:24;;;;;;;1.90;1.80;;;;;;;;;;5060773;28;20333;-75
2023/04/29 07:23:52;;;;;;;2.20;2.10;;;;;;;;;;5064192;28;20264;-73
2023/04/29 07:26:20;;;;;;;2.47;2.10;;;;;;;;;;5065322;28;20228;-75
2023/04/29 07:28:48;;;;;;;1.90;1.80;;;;;;;;;;5052746;28;20237;-74
2023/04/29 07:31:16;;;;;;;2.10;2.00;;;;;;;;;;5039268;28;20286;-75
2023/04/29 07:33:45;;;;;;;2.23;2.13;;;;;;;;;;5063904;28;20293;-75
2023/04/29 07:36:12;;;;;;;2.37;2.23;;;;;;;;;;5061647;28;20628;-74
2023/04/29 07:38:40;;;;;;;2.13;2.03;;;;;;;;;;5046188;28;20822;-76
2023/04/29 07:41:07;;;;;;;3.87;3.33;;;;;;;;;;5061971;28;20240;-75
2023/04/29 07:43:37;;;;;;;2.67;2.47;;;;;;;;;;5061403;28;20208;-74
2023/04/29 07:46:08;;;;;;;2.00;1.90;;;;;;;;;;5061130;28;20664;-77
2023/04/29 07:48:38;;;;;;;2.30;1.90;;;;;;;;;;5064589;28;20202;-76
2023/04/29 07:51:07;;;;;;;1.97;1.87;;;;;;;;;;5057896;28;20226;-73
2023/04/29 07:53:35;;;;;;;2.30;2.20;;;;;;;;;;5053684;28;20251;-76
2023/04/29 07:56:06;;;;;;;2.40;2.20;;;;;;;;;;5040395;28;20229;-74
2023/04/29 07:58:33;;;;;;;2.20;2.10;;;;;;;;;;5053382;28;20213;-77
2023/04/29 08:01:07;;;;;;;2.70;2.50;;;;;;;;;;5065396;28;20229;-76
2023/04/29 08:03:34;;;;;;;2.33;2.23;;;;;;;;;;5061553;28;20252;-73
2023/04/29 08:06:06;;;;;;;2.77;1.90;;;;;;;;;;5048169;28;20209;-75
2023/04/29 08:08:34;;;;;;;1.80;1.70;;;;;;;;;;5057155;28;20197;-74
2023/04/29 08:11:01;;;;;;;1.70;1.60;;;;;;;;;;5058180;28;20476;-76
2023/04/29 08:13:28;;;;;;;2.20;2.10;;;;;;;;;;5051262;28;20263;-76
2023/04/29 08:15:55;;;;;;;3.73;2.17;;;;;;;;;;5029563;28;20237;-76
2023/04/29 08:18:23;;;;;;;1.90;1.80;;;;;;;;;;5035669;28;20209;-75
2023/04/29 08:20:50;;;;;;;2.20;2.10;;;;;;;;;;5050095;28;20897;-75
2023/04/29 08:23:17;;;;;;;1.80;1.70;;;;;;;;;;5045961;28;20639;-76
2023/04/29 08:25:45;;;;;;;3.22;1.83;;;;;;;;;;5021424;28;20210;-76
2023/04/29 08:28:12;;;;;;;1.98;1.50;;;;;;;;;;5024572;28;20296;-75
2023/04/29 08:30:40;;;;;;;1.60;1.60;;;;;;;;;;5042324;28;20711;-75
2023/04/29 08:33:08;;;;;;;3.08;1.60;;;;;;;;;;5052118;28;20244;-74
2023/04/29 08:35:38;;;;;;;3.72;1.70;;;;;;;;;;5056296;28;20244;-75
2023/04/29 08:38:05;;;;;;;1.70;1.60;;;;;;;;;;5054760;28;20293;-75
2023/04/29 08:40:51;;;;;;;1.85;1.67;;;;;;;;;;5041687;28;20313;-75
2023/04/29 08:43:19;;;;;;;1.50;1.50;;;;;;;;;;5037220;28;20201;-76
2023/04/29 08:45:47;;;;;;;1.70;1.60;;;;;;;;;;5039325;28;20202;-76
2023/04/29 08:48:18;;;;;;;1.60;1.50;;;;;;;;;;5042350;28;20439;-75
2023/04/29 08:50:46;;;;;;;2.28;1.92;;;;;;;;;;5042840;28;20221;-75
2023/04/29 08:53:14;;;;;;;2.20;2.10;;;;;;;;;;5032732;28;20201;-75
2023/04/29 08:55:45;;;;;;;1.48;1.42;;;;;;;;;;5034344;28;20284;-74
2023/04/29 08:58:14;;;;;;;1.90;1.80;;;;;;;;;;5048167;28;20273;-75
2023/04/29 09:00:42;;;;;;;1.80;1.70;;;;;;;;;;5036831;28;20329;-75
2023/04/29 09:03:14;;;;;;;1.60;1.50;;;;;;;;;;5037264;28;20208;-74
2023/04/29 09:05:43;;;;;;;4.95;1.60;;;;;;;;;;5042759;28;20217;-75
2023/04/29 09:08:11;;;;;;;2.05;1.73;;;;;;;;;;5030690;28;20205;-75
2023/04/29 09:10:41;;;;;;;1.27;1.27;;;;;;;;;;5044940;28;20782;-76
2023/04/29 09:13:08;;;;;;;1.80;1.70;;;;;;;;;;5052559;28;20252;-77
2023/04/29 09:15:40;;;;;;;1.60;1.50;;;;;;;;;;5058209;28;20211;-74
2023/04/29 09:18:08;;;;;;;1.80;1.60;;;;;;;;;;5045561;28;20235;-75
2023/04/29 09:20:36;;;;;;;1.70;1.60;;;;;;;;;;5066138;28;20233;-75
2023/04/29 09:23:03;;;;;;;2.15;1.80;;;;;;;;;;5060887;28;20760;-76
2023/04/29 09:25:30;;;;;;;1.75;1.55;;;;;;;;;;5057911;28;20648;-75
2023/04/29 09:27:58;;;;;;;3.08;2.88;;;;;;;;;;5064846;28;20230;-75
2023/04/29 09:30:27;;;;;;;2.30;2.15;;;;;;;;;;5060352;28;20224;-74
2023/04/29 09:33:05;;;;;;;3.35;3.05;;;;;;;;;;5045929;28;20248;-75
2023/04/29 09:35:33;;;;;;;1.98;1.83;;;;;;;;;;5059376;28;20225;-75
2023/04/29 09:38:08;;;;;;;1.95;1.85;;;;;;;;;;5060124;28;20212;-74
2023/04/29 09:40:36;;;;;;;2.92;1.60;;;;;;;;;;5058478;28;20320;-74
2023/04/29 09:43:18;;;;;;;1.70;1.40;;;;;;;;;;5065682;28;20264;-76
2023/04/29 09:45:46;;;;;;;1.38;1.35;;;;;;;;;;5065572;28;20289;-74
2023/04/29 09:48:14;;;;;;;1.63;1.52;;;;;;;;;;5045257;28;20574;-75
2023/04/29 09:50:43;;;;;;;1.80;1.70;;;;;;;;;;5061291;28;20271;-76
2023/04/29 09:53:11;;;;;;;1.70;1.60;;;;;;;;;;5058064;28;20289;-76
2023/04/29 09:55:54;;;;;;;2.65;1.77;;;;;;;;;;5062877;28;20710;-74
2023/04/29 09:58:39;;;;;;;1.95;1.50;;;;;;;;;;5055365;28;20283;-74
2023/04/29 10:01:07;;;;;;;2.38;2.17;;;;;;;;;;5066400;28;20225;-74
2023/04/29 10:03:37;;;;;;;2.33;2.13;;;;;;;;;;5062145;28;20221;-76
2023/04/29 10:06:06;;;;;;;3.25;2.80;;;;;;;;;;5048115;28;20214;-72
2023/04/29 10:08:34;;;;;;;1.50;1.40;;;;;;;;;;5053846;28;20202;-77
2023/04/29 10:11:04;;;;;;;3.05;2.30;;;;;;;;;;5054230;28;20224;-75
2023/04/29 10:13:34;;;;;;;2.22;1.50;;;;;;;;;;5044625;28;20239;-74
2023/04/29 10:16:17;;;;;;;7.47;4.60;;;;;;;;;;5045331;28;20263;-75
2023/04/29 10:18:48;;;;;;;1.30;1.20;;;;;;;;;;5058299;28;21391;-77
2023/04/29 10:21:18;;;;;;;1.38;1.38;;;;;;;;;;5061562;28;20240;-76
2023/04/29 10:23:45;;;;;;;1.10;1.10;;;;;;;;;;5069608;28;20229;-75
2023/04/29 10:26:13;;;;;;;1.08;1.08;;;;;;;;;;5064645;28;20671;-74
2023/04/29 10:28:42;;;;;;;2.72;1.10;;;;;;;;;;5051985;28;20201;-76
2023/04/29 10:31:10;;;;;;;1.50;1.40;;;;;;;;;;5064204;28;20263;-75
2023/04/29 10:33:40;;;;;;;1.48;1.38;;;;;;;;;;5070363;28;20227;-75
2023/04/29 10:36:08;;;;;;;1.60;1.25;;;;;;;;;;5065238;28;20279;-76
2023/04/29 10:38:35;;;;;;;2.95;1.50;;;;;;;;;;5070421;28;20204;-72
2023/04/29 10:41:08;;;;;;;1.40;1.20;;;;;;;;;;5045989;28;20246;-77
2023/04/29 10:43:36;;;;;;;3.15;1.13;;;;;;;;;;5040038;28;20648;-74
2023/04/29 10:46:15;;;;;;;1.13;1.10;;;;;;;;;;5061655;28;20296;-75
2023/04/29 10:48:43;;;;;;;1.42;1.35;;;;;;;;;;5054928;28;20288;-75
2023/04/29 10:51:10;;;;;;;1.50;1.40;;;;;;;;;;5065063;28;20679;-75
2023/04/29 10:53:56;;;;;;;1.75;1.13;;;;;;;;;;5063740;28;20198;-75
2023/04/29 10:56:35;;;;;;;1.65;1.10;;;;;;;;;;5060141;28;20248;-75
2023/04/29 10:59:03;;;;;;;2.22;2.10;;;;;;;;;;5065796;28;20204;-74
2023/04/29 11:01:44;;;;;;;1.00;1.00;;;;;;;;;;5061078;28;20339;-75
2023/04/29 11:04:12;;;;;;;1.13;1.02;;;;;;;;;;5062615;28;20202;-74
2023/04/29 11:06:41;;;;;;;1.75;1.00;;;;;;;;;;5042958;28;20197;-73
2023/04/29 11:09:13;;;;;;;1.02;0.93;;;;;;;;;;5058561;28;20217;-75
2023/04/29 11:11:59;;;;;;;0.93;0.93;;;;;;;;;;5068150;28;20209;-76
2023/04/29 11:14:29;;;;;;;0.85;0.85;;;;;;;;;;5063541;28;20232;-75
2023/04/29 11:16:58;;;;;;;0.93;0.93;;;;;;;;;;5059058;28;20201;-76
2023/04/29 11:19:30;;;;;;;1.02;1.00;;;;;;;;;;5039884;28;20201;-75
2023/04/29 11:22:08;;;;;;;1.00;1.00;;;;;;;;;;5067684;28;21120;-75
2023/04/29 11:24:35;;;;;;;0.80;0.77;;;;;;;;;;5039509;28;20197;-74
2023/04/29 11:27:04;;;;;;;0.90;0.90;;;;;;;;;;5056007;28;20206;-75
2023/04/29 11:29:32;;;;;;;1.50;1.33;;;;;;;;;;5037960;28;20225;-74
2023/04/29 11:32:01;;;;;;;1.80;1.70;;;;;;;;;;5044759;28;20199;-74
2023/04/29 11:34:28;;;;;;;0.70;0.70;;;;;;;;;;5048884;28;20205;-76
2023/04/29 11:36:56;;;;;;;2.03;1.40;;;;;;;;;;5061027;28;20676;-75
2023/04/29 11:39:23;;;;;;;3.55;3.03;;;;;;;;;;5072545;28;20575;-75
2023/04/29 11:41:51;;;;;;;1.77;1.67;;;;;;;;;;5048382;28;20342;-74
2023/04/29 11:44:22;;;;;;;14.63;6.95;;;;;;;;;;5048311;28;20197;-75
2023/04/29 11:46:50;;;;;;;1.33;1.33;;;;;;;;;;5054400;28;20209;-74
2023/04/29 11:49:17;;;;;;;0.98;0.98;;;;;;;;;;5039500;28;20231;-74
2023/04/29 11:51:45;;;;;;;1.00;1.00;;;;;;;;;;5052717;28;20214;-73
2023/04/29 11:54:12;;;;;;;0.80;0.80;;;;;;;;;;5054302;28;20213;-73
2023/04/29 11:56:39;;;;;;;1.48;1.00;;;;;;;;;;5058078;28;20197;-74
2023/04/29 11:59:07;;;;;;;1.13;0.90;;;;;;;;;;5060002;28;20288;-72
2023/04/29 12:01:35;;;;;;;2.25;1.00;;;;;;;;;;5033751;28;20198;-73
2023/04/29 12:04:05;;;;;;;1.35;1.33;;;;;;;;;;5033550;28;20692;-74
2023/04/29 12:06:33;;;;;;;2.10;1.90;;;;;;;;;;5067659;28;20201;-74
2023/04/29 12:09:03;;;;;;;1.52;1.25;;;;;;;;;;5062398;28;20707;-73
2023/04/29 12:11:30;;;;;;;1.80;1.70;;;;;;;;;;5059352;28;20222;-74
2023/04/29 12:14:01;;;;;;;1.40;1.30;;;;;;;;;;5061015;28;20201;-74
2023/04/29 12:16:29;;;;;;;1.45;1.45;;;;;;;;;;5053942;28;20305;-74
2023/04/29 12:18:57;;;;;;;6.68;4.03;;;;;;;;;;5056419;28;20234;-75
2023/04/29 12:21:26;;;;;;;1.70;1.60;;;;;;;;;;5059159;28;20385;-73
2023/04/29 12:23:54;;;;;;;1.80;1.70;;;;;;;;;;5068820;28;20581;-75
2023/04/29 12:26:21;;;;;;;1.92;1.75;;;;;;;;;;5064776;28;20197;-73
2023/04/29 12:28:53;;;;;;;5.72;3.33;;;;;;;;;;5062066;28;20248;-74
2023/04/29 12:31:21;;;;;;;2.03;1.40;;;;;;;;;;5070024;28;20690;-74
2023/04/29 12:33:49;;;;;;;1.63;1.52;;;;;;;;;;5061544;28;20783;-73
2023/04/29 12:36:19;;;;;;;1.90;1.80;;;;;;;;;;5059022;28;20685;-74
2023/04/29 12:38:48;;;;;;;1.50;1.50;;;;;;;;;;5050108;28;20201;-74
2023/04/29 12:41:16;;;;;;;1.88;1.60;;;;;;;;;;5053259;28;20261;-73
2023/04/29 12:43:43;;;;;;;1.88;1.60;;;;;;;;;;5048954;28;20699;-74
2023/04/29 12:46:13;;;;;;;1.40;1.30;;;;;;;;;;5043861;28;20569;-73
2023/04/29 12:48:42;;;;;;;1.42;1.30;;;;;;;;;;5047457;28;20475;-74
2023/04/29 12:51:10;;;;;;;1.50;1.40;;;;;;;;;;5046159;28;20234;-73
2023/04/29 12:53:38;;;;;;;1.65;1.55;;;;;;;;;;5041987;28;20666;-73
2023/04/29 12:56:06;;;;;;;1.38;1.27;;;;;;;;;;5046586;28;20202;-75
2023/04/29 12:58:33;;;;;;;5.45;3.58;;;;;;;;;;5055729;28;20289;-73
2023/04/29 13:01:01;;;;;;;1.75;1.65;;;;;;;;;;5033297;28;20221;-75
2023/04/29 13:03:29;;;;;;;2.00;1.55;;;;;;;;;;5047230;28;20268;-75
2023/04/29 13:05:57;;;;;;;1.15;1.15;;;;;;;;;;5060372;28;20217;-74
2023/04/29 13:08:26;;;;;;;1.42;1.33;;;;;;;;;;5077235;28;20193;-74
2023/04/29 13:10:53;;;;;;;2.20;2.10;;;;;;;;;;5047391;28;20221;-76
2023/04/29 13:13:21;;;;;;;4.90;3.20;;;;;;;;;;5047309;28;20408;-74
2023/04/29 13:15:49;;;;;;;1.85;1.73;;;;;;;;;;5064233;28;20242;-74
2023/04/29 13:18:17;;;;;;;2.97;1.77;;;;;;;;;;5062887;28;20205;-75
2023/04/29 13:20:45;;;;;;;2.17;1.60;;;;;;;;;;5070139;28;20240;-75
2023/04/29 13:23:14;;;;;;;1.83;1.73;;;;;;;;;;5060846;28;20261;-74
2023/04/29 13:25:42;;;;;;;1.80;1.70;;;;;;;;;;5049180;28;20236;-75
2023/04/29 13:28:10;;;;;;;3.10;1.70;;;;;;;;;;5065009;28;20697;-74
2023/04/29 13:30:37;;;;;;;1.73;1.63;;;;;;;;;;5065313;28;20210;-74
2023/04/29 13:33:04;;;;;;;2.05;1.90;;;;;;;;;;5069744;28;20641;-75
2023/04/29 13:35:42;;;;;;;2.45;2.10;;;;;;;;;;5066428;28;20212;-74
2023/04/29 13:38:09;;;;;;;2.30;2.13;;;;;;;;;;5063819;28;20205;-75
2023/04/29 13:40:36;;;;;;;2.33;2.22;;;;;;;;;;5062265;28;20221;-75
2023/04/29 13:43:12;;;;;;;2.28;2.05;;;;;;;;;;5066876;28;20296;-74
2023/04/29 13:45:50;;;;;;;2.88;2.67;;;;;;;;;;5064318;28;20198;-74
2023/04/29 13:48:19;;;;;;;2.67;2.47;;;;;;;;;;5064459;28;20198;-74
2023/04/29 13:50:52;;;;;;;2.20;2.10;;;;;;;;;;5066035;28;20679;-75
2023/04/29 13:53:23;;;;;;;2.00;1.80;;;;;;;;;;5063131;28;20513;-74
2023/04/29 13:56:10;;;;;;;3.35;2.90;;;;;;;;;;5062988;28;20212;-75
2023/04/29 13:58:40;;;;;;;2.72;2.22;;;;;;;;;;5061193;28;20234;-74
2023/04/29 14:01:28;;;;;;;2.08;1.90;;;;;;;;;;5062184;28;20685;-75
2023/04/29 14:03:58;;;;;;;2.10;2.00;;;;;;;;;;5065943;28;20686;-74
2023/04/29 14:06:28;;;;;;;1.98;1.88;;;;;;;;;;5071554;28;20198;-74
2023/04/29 14:08:56;;;;;;;1.88;1.77;;;;;;;;;;5063937;28;20201;-74
2023/04/29 14:11:24;;;;;;;2.17;1.63;;;;;;;;;;5065702;28;20291;-72
2023/04/29 14:13:51;;;;;;;2.15;1.75;;;;;;;;;;5050499;28;20587;-75
2023/04/29 14:16:20;;;;;;;2.00;1.90;;;;;;;;;;5065714;28;20717;-74
2023/04/29 14:18:49;;;;;;;1.77;1.67;;;;;;;;;;5064854;28;20217;-75
2023/04/29 14:21:21;;;;;;;2.40;2.20;;;;;;;;;;5064160;28;20757;-75
2023/04/29 14:23:49;;;;;;;2.33;1.95;;;;;;;;;;5064254;28;20765;-75
2023/04/29 14:26:16;;;;;;;1.85;1.75;;;;;;;;;;5072743;28;20401;-75
2023/04/29 14:28:58;;;;;;;2.38;2.28;;;;;;;;;;5066589;28;20198;-74
2023/04/29 14:31:29;;;;;;;2.30;2.10;;;;;;;;;;5062093;28;20672;-74
2023/04/29 14:33:57;;;;;;;2.42;2.22;;;;;;;;;;5058398;28;20209;-75
2023/04/29 14:36:25;;;;;;;1.85;1.75;;;;;;;;;;5068640;28;20267;-74
2023/04/29 14:38:53;;;;;;;2.90;2.40;;;;;;;;;;5048839;28;20203;-75
2023/04/29 14:41:20;;;;;;;2.35;2.08;;;;;;;;;;5048307;28;20308;-74
2023/04/29 14:43:48;;;;;;;2.75;2.55;;;;;;;;;;5049202;28;20223;-74
2023/04/29 14:46:15;;;;;;;2.88;2.65;;;;;;;;;;5036662;28;20656;-74
2023/04/29 14:48:43;;;;;;;3.00;2.70;;;;;;;;;;5038157;28;20212;-74
2023/04/29 14:51:10;;;;;;;5.03;2.58;;;;;;;;;;5052300;28;20271;-74
2023/04/29 14:53:38;;;;;;;3.17;2.85;;;;;;;;;;5039061;28;20618;-74